• Join FlightAware (Why Join?)
  • Login
  • US Flag 
11:22PM EDT


 

Airport Tracker/Info


-or-


 

Live Flight TrackerFlight Track Log ✈ N40BZ ✈ 18-Sep-2013 ✈ KBUF - KCRW

Flight Track Log - Related Links

Times and Time Zones

All times are in EDT time to prevent confusion due to time zone crossing. See the N40BZ flight status page for this flight to view local times or setup timezone preferences in your user account.

Time Position Orientation Groundspeed Altitude Reporting Facility
EDT Latitude Longitude Course Direction KTS MPH feet Rate Location/Type
07:32AM 42.9333 -78.7000 144° Southeast 122 140 1,200  Level Buffalo TRACON
07:33AM 42.9167 -78.6833 144° Southeast 115 132 2,100 900 Climbing Buffalo TRACON
07:34AM 42.8833 -78.6833 180° South 124 143 3,000 840 Climbing Buffalo TRACON
07:35AM 42.8558 -78.6933 195° South 119 137 3,600 900 Climbing Cleveland Center
07:36AM 42.8239 -78.7156 207° Southwest 126 145 4,600 960 Climbing Cleveland Center
07:37AM 42.7908 -78.7381 207° Southwest 128 147 5,600 900 Climbing Cleveland Center
07:38AM 42.7608 -78.7597 208° Southwest 121 139 6,500 840 Climbing Cleveland Center
07:39AM 42.7281 -78.7817 206° Southwest 126 145 7,400 840 Climbing Cleveland Center
07:40AM 42.6956 -78.8050 208° Southwest 128 147 8,300 780 Climbing Cleveland Center
07:41AM 42.6642 -78.8261 206° Southwest 130 150 9,000 720 Climbing Cleveland Center
07:42AM 42.6289 -78.8514 208° Southwest 137 158 9,900 780 Climbing Cleveland Center
07:43AM 42.5958 -78.8733 206° Southwest 142 163 10,600 720 Climbing Cleveland Center
07:44AM 42.5611 -78.8981 208° Southwest 142 163 11,400 660 Climbing Cleveland Center
07:45AM 42.5169 -78.9286 207° Southwest 149 171 12,000 240 Climbing Cleveland Center
07:46AM 42.4719 -78.9586 206° Southwest 179 206 12,000  Level Cleveland Center
07:47AM 42.4289 -78.9894 208° Southwest 186 214 12,000  Level Cleveland Center
07:48AM 42.3822 -79.0225 208° Southwest 189 217 12,000  Level Cleveland Center
07:49AM 42.3353 -79.0544 207° Southwest 190 219 12,000  Level Cleveland Center
07:50AM 42.2794 -79.0919 206° Southwest 190 219 12,000  Level Cleveland Center
07:51AM 42.2331 -79.1231 206° Southwest 190 219 12,000  Level Cleveland Center
07:52AM 42.1861 -79.1550 207° Southwest 191 220 12,000  Level Cleveland Center
07:53AM 42.1403 -79.1861 207° Southwest 188 216 12,000  Level Cleveland Center
07:54AM 42.0933 -79.2189 207° Southwest 191 220 12,000  Level Cleveland Center
07:55AM 42.0456 -79.2533 208° Southwest 196 226 12,000  Level Cleveland Center
07:56AM 41.9903 -79.2911 207° Southwest 188 216 12,000  Level Cleveland Center
07:57AM 41.9431 -79.3217 206° Southwest 189 217 12,000  Level Cleveland Center
07:58AM 41.8967 -79.3525 206° Southwest 189 217 12,000  Level Cleveland Center
07:59AM 41.8500 -79.3836 206° Southwest 188 216 12,000  Level Cleveland Center
08:00AM 41.8039 -79.4158 208° Southwest 189 217 12,000  Level Cleveland Center
08:02AM 41.7481 -79.4531 206° Southwest 189 217 12,000  Level Cleveland Center
08:03AM 41.7017 -79.4847 207° Southwest 189 217 12,000  Level Cleveland Center
08:04AM 41.6558 -79.5147 206° Southwest 186 214 12,000  Level Cleveland Center
08:05AM 41.6083 -79.5456 206° Southwest 189 217 12,000  Level Cleveland Center
08:06AM 41.5622 -79.5767 207° Southwest 188 216 12,000  Level Cleveland Center
08:07AM 41.5158 -79.6075 206° Southwest 187 215 12,000  Level Cleveland Center
08:08AM 41.4600 -79.6444 206° Southwest 188 216 12,000  Level Cleveland Center
08:09AM 41.4125 -79.6764 207° Southwest 191 220 12,000  Level Cleveland Center
08:10AM 41.3661 -79.7058 205° Southwest 187 215 12,000  Level Cleveland Center
08:11AM 41.3214 -79.7375 208° Southwest 185 213 12,000  Level Cleveland Center
08:12AM 41.2739 -79.7675 205° Southwest 188 216 12,000  Level Cleveland Center
08:13AM 41.2172 -79.8039 206° Southwest 189 217 12,000  Level Cleveland Center
08:14AM 41.1711 -79.8361 208° Southwest 189 217 12,000  Level Cleveland Center
08:15AM 41.1214 -79.8675 205° Southwest 189 217 12,000  Level Cleveland Center
08:16AM 41.0758 -79.8989 207° Southwest 186 214 12,000  Level Cleveland Center
08:17AM 41.0289 -79.9297 206° Southwest 187 215 12,000  Level Cleveland Center
08:18AM 40.9811 -79.9600 206° Southwest 190 219 12,000  Level Cleveland Center
08:19AM 40.9353 -79.9906 207° Southwest 186 214 12,000  Level Cleveland Center
08:20AM 40.8792 -80.0264 206° Southwest 186 214 12,000  Level Cleveland Center
08:21AM 40.8369 -80.0542 206° Southwest 185 213 12,000  Level Cleveland Center
08:22AM 40.7900 -80.0850 206° Southwest 187 215 12,000  Level Cleveland Center
08:23AM 40.7347 -80.1217 207° Southwest 185 213 12,000  Level Cleveland Center
08:24AM 40.6875 -80.1519 206° Southwest 188 216 12,000  Level Cleveland Center
08:25AM 40.6411 -80.1819 206° Southwest 187 215 12,000  Level Cleveland Center
08:26AM 40.5936 -80.2125 206° Southwest 189 217 12,000  Level Cleveland Center
08:27AM 40.5467 -80.2422 206° Southwest 188 216 12,000  Level Cleveland Center
08:28AM 40.4903 -80.2781 206° Southwest 189 217 12,000  Level Cleveland Center
08:29AM 40.4442 -80.3092 207° Southwest 188 216 12,000  Level Cleveland Center
08:30AM 40.3978 -80.3372 205° Southwest 185 213 12,000  Level Cleveland Center
08:31AM 40.3481 -80.3700 207° Southwest 188 216 12,000  Level Cleveland Center
08:33AM 40.3014 -80.4008 207° Southwest 190 219 12,000  Level Cleveland Center
08:34AM 40.2544 -80.4306 206° Southwest 189 217 12,000  Level Cleveland Center
08:35AM 40.2069 -80.4600 205° Southwest 190 219 12,000  Level Cleveland Center
08:36AM 40.1608 -80.4897 206° Southwest 187 215 12,000  Level Cleveland Center
08:37AM 40.1042 -80.5242 205° Southwest 188 216 12,000  Level Cleveland Center
08:38AM 40.0519 -80.5297 185° South 190 219 12,000  Level Cleveland Center
08:39AM 40.0036 -80.5547 202° Southwest 194 223 12,000  Level Cleveland Center
08:40AM 39.9578 -80.5839 206° Southwest 185 213 12,000  Level Cleveland Center
08:41AM 39.9100 -80.6139 206° Southwest 190 219 12,000  Level Cleveland Center
08:42AM 39.8678 -80.6414 207° Southwest 188 216 12,000  Level Indianapolis Center
08:43AM 39.8217 -80.6736 208° Southwest 187 215 12,000  Level Indianapolis Center
08:44AM 39.7744 -80.7031 206° Southwest 188 216 12,000  Level Indianapolis Center
08:45AM 39.7278 -80.7339 207° Southwest 188 216 12,000  Level Indianapolis Center
08:46AM 39.6808 -80.7633 206° Southwest 187 215 12,000  Level Indianapolis Center
08:47AM 39.6344 -80.7942 207° Southwest 186 214 12,000  Level Indianapolis Center
08:48AM 39.5800 -80.8297 207° Southwest 182 209 12,000  Level Indianapolis Center
08:49AM 39.5333 -80.8594 206° Southwest 185 213 12,000  Level Indianapolis Center
08:50AM 39.4875 -80.8886 206° Southwest 184 212 12,000  Level Indianapolis Center
08:51AM 39.4411 -80.9194 207° Southwest 186 214 12,000  Level Indianapolis Center
08:52AM 39.3950 -80.9503 207° Southwest 186 214 12,000  Level Indianapolis Center
08:53AM 39.3481 -80.9803 206° Southwest 187 215 12,000 -240 Level Indianapolis Center
08:54AM 39.3006 -81.0103 206° Southwest 189 217 11,600 -480 Descending Indianapolis Center
08:55AM 39.2494 -81.0425 206° Southwest 199 229 11,100 -540 Descending Indianapolis Center
08:56AM 39.1894 -81.0814 207° Southwest 201 231 10,500 -540 Descending Indianapolis Center
08:57AM 39.1394 -81.1133 206° Southwest 200 230 10,000 -540 Descending Indianapolis Center
08:58AM 39.0897 -81.1453 207° Southwest 199 229 9,500 -540 Descending Indianapolis Center
08:59AM 39.0392 -81.1769 206° Southwest 200 230 9,000 -540 Descending Indianapolis Center
09:00AM 38.9897 -81.2067 205° Southwest 198 228 8,500 -540 Descending Indianapolis Center
09:01AM 38.9406 -81.2336 203° Southwest 194 223 8,000 -540 Descending Indianapolis Center
09:02AM 38.8917 -81.2611 204° Southwest 191 220 7,500 -540 Descending Indianapolis Center
09:03AM 38.8453 -81.2864 203° Southwest 187 215 7,000 -540 Descending Indianapolis Center
09:04AM 38.7900 -81.3172 203° Southwest 182 209 6,400 -600 Descending Indianapolis Center
09:05AM 38.7439 -81.3431 204° Southwest 180 207 5,800 -720 Descending Indianapolis Center
09:06AM 38.6956 -81.3700 204° Southwest 183 211 5,000 -720 Descending Indianapolis Center
09:07AM 38.6469 -81.3964 203° Southwest 186 214 4,400 -540 Descending Indianapolis Center
09:08AM 38.6006 -81.4217 203° Southwest 182 209 3,900 -420 Descending Indianapolis Center
09:09AM 38.5558 -81.4464 203° Southwest 177 204 3,600 -300 Descending Indianapolis Center
09:10AM 38.5122 -81.4703 203° Southwest 172 198 3,300 -360 Descending Indianapolis Center
09:11AM 38.4697 -81.4942 204° Southwest 169 194 2,900 -480 Descending Indianapolis Center
09:12AM 38.4292 -81.5189 206° Southwest 165 190 2,400 -720 Descending Indianapolis Center
09:13AM 38.3997 -81.5619 229° Southwest 143 165 1,500 -540 Descending Indianapolis Center
09:14AM 38.3783 -81.5922 228° Southwest 136 157 1,300 -240 Descending Indianapolis Center